createdAt,value
2019-05-13T05:11:34.213Z,139.00
2019-05-13T05:21:34.922Z,183.09
2019-05-13T05:31:34.479Z,195.70
2019-05-13T05:41:34.731Z,245.58
2019-05-13T05:51:34.405Z,240.18
2019-05-13T06:01:37.225Z,275.75
2019-05-13T06:11:36.995Z,347.40
2019-05-13T06:21:34.192Z,344.58
2019-05-13T06:31:34.397Z,350.71
2019-05-13T06:41:34.537Z,428.98
2019-05-13T06:51:34.826Z,467.46
2019-05-13T07:01:34.483Z,552.84
2019-05-13T07:11:34.376Z,649.48
2019-05-13T07:21:34.431Z,650.39
2019-05-13T07:31:34.376Z,700.53
2019-05-13T07:41:39.289Z,679.01
2019-05-13T07:51:34.918Z,775.40
2019-05-13T08:01:34.252Z,936.31
2019-05-13T08:11:40.154Z,904.18
2019-05-13T08:21:34.910Z,1013.15
2019-05-13T08:31:35.048Z,925.22
2019-05-13T08:41:34.890Z,962.56
2019-05-13T08:51:34.866Z,1124.40
2019-05-13T09:01:36.744Z,1203.82
2019-05-13T09:11:34.889Z,1200.77
2019-05-13T09:21:34.931Z,1213.00
2019-05-13T09:31:35.098Z,1340.83
2019-05-13T09:41:40.886Z,1340.22
2019-05-13T09:51:35.270Z,1279.28
2019-05-13T10:01:35.026Z,1278.66
2019-05-13T10:11:34.964Z,1539.24
2019-05-13T10:21:34.642Z,1606.47
2019-05-13T10:31:34.814Z,1733.69
2019-05-13T10:41:35.204Z,1850.03
2019-05-13T10:51:34.239Z,1597.38
2019-05-13T11:01:34.699Z,1777.95
2019-05-13T11:11:34.878Z,1693.20
2019-05-13T11:21:34.850Z,1742.17
2019-05-13T11:31:35.142Z,2110.64
2019-05-13T11:41:34.818Z,2032.30
2019-05-13T11:51:34.960Z,1940.49
2019-05-13T12:01:34.434Z,1871.40
2019-05-13T12:11:34.598Z,2054.62
2019-05-13T12:21:41.695Z,2099.88
2019-05-13T12:31:34.842Z,2082.76
2019-05-13T12:41:34.901Z,2283.92
2019-05-13T12:51:35.073Z,2212.32
2019-05-13T13:01:35.048Z,2163.42
2019-05-13T13:11:35.068Z,2156.18
2019-05-13T13:21:37.710Z,1956.48
2019-05-13T13:31:34.956Z,2368.11
2019-05-13T13:41:34.939Z,2365.14
2019-05-13T13:51:34.696Z,2503.64
2019-05-13T14:01:34.960Z,2224.06
2019-05-13T14:11:34.836Z,2265.54
2019-05-13T14:21:34.914Z,2122.12
2019-05-13T14:31:34.867Z,1985.72
2019-05-13T14:41:33.896Z,2092.95
2019-05-13T14:51:34.079Z,1962.16
2019-05-13T15:01:34.163Z,1963.04
2019-05-13T15:11:34.125Z,1922.91
2019-05-13T15:21:34.426Z,2059.37
2019-05-13T15:31:34.168Z,1819.86
2019-05-13T15:41:34.027Z,1778.95
2019-05-13T15:51:34.708Z,2072.70
2019-05-13T16:01:34.054Z,1943.18
2019-05-13T16:11:34.237Z,2009.54
2019-05-13T16:21:34.082Z,2041.86
2019-05-13T16:31:34.691Z,1974.84
2019-05-13T16:41:34.488Z,2018.22
2019-05-13T16:51:34.615Z,2166.58
2019-05-13T17:01:34.702Z,2000.46
2019-05-13T17:11:34.561Z,2033.62
2019-05-13T17:21:36.081Z,2075.52
2019-05-13T17:31:34.398Z,1927.72
2019-05-13T17:41:34.344Z,1857.54
2019-05-13T17:51:34.630Z,1802.53
2019-05-13T18:01:34.494Z,1803.79
2019-05-13T18:11:34.470Z,1727.27
2019-05-13T18:21:35.262Z,1711.83
2019-05-13T18:31:34.701Z,1674.84
2019-05-13T18:41:34.443Z,1588.94
2019-05-13T18:51:34.335Z,1531.13
2019-05-13T19:01:34.398Z,1445.50
